createdAt,value
2019-05-17T00:01:18.808Z,87.77
2019-05-17T00:03:46.969Z,87.54
2019-05-17T00:06:12.297Z,87.71
2019-05-17T00:08:38.545Z,88.01
2019-05-17T00:11:06.690Z,88.19
2019-05-17T00:13:32.303Z,88.07
2019-05-17T00:15:58.096Z,88.39
2019-05-17T00:18:23.877Z,88.02
2019-05-17T00:20:49.777Z,87.91
2019-05-17T00:23:17.358Z,88.10
2019-05-17T00:25:43.276Z,88.21
2019-05-17T00:28:09.056Z,88.47
2019-05-17T00:30:36.977Z,88.23
2019-05-17T00:33:02.544Z,87.86
2019-05-17T00:35:28.343Z,87.87
2019-05-17T00:37:54.138Z,87.71
2019-05-17T00:40:19.949Z,87.71
2019-05-17T00:42:46.671Z,87.70
2019-05-17T00:45:12.840Z,87.75
2019-05-17T00:47:38.631Z,87.79
2019-05-17T00:50:07.399Z,87.97
2019-05-17T00:52:33.112Z,87.95
2019-05-17T00:54:58.924Z,87.69
2019-05-17T00:57:27.191Z,87.75
2019-05-17T00:59:52.438Z,88.23
2019-05-17T01:02:18.219Z,88.24
2019-05-17T01:04:44.010Z,88.06
2019-05-17T01:07:09.810Z,88.05
2019-05-17T01:09:36.682Z,88.22
2019-05-17T01:12:02.623Z,88.29
2019-05-17T01:14:28.410Z,88.59
2019-05-17T01:16:56.362Z,88.67
2019-05-17T01:19:21.899Z,89.25
2019-05-17T01:21:47.711Z,89.63
2019-05-17T01:24:13.487Z,89.67
2019-05-17T01:26:39.285Z,90.00
2019-05-17T01:29:06.703Z,90.54
2019-05-17T01:31:32.685Z,90.71
2019-05-17T01:33:58.471Z,91.15
2019-05-17T01:36:26.230Z,91.10
2019-05-17T01:38:51.961Z,91.08
2019-05-17T01:41:17.769Z,91.16
2019-05-17T01:43:43.550Z,91.13
2019-05-17T01:46:09.347Z,91.41
2019-05-17T01:48:36.539Z,92.10
2019-05-17T01:51:02.539Z,92.15
2019-05-17T01:53:28.340Z,92.11
2019-05-17T01:55:54.118Z,92.29
2019-05-17T01:58:19.927Z,92.46
2019-05-17T02:00:46.509Z,92.56
2019-05-17T02:03:12.519Z,92.52
2019-05-17T02:05:38.302Z,92.33
2019-05-17T02:08:06.621Z,92.58
2019-05-17T02:10:32.113Z,92.85
2019-05-17T02:12:57.917Z,92.85
2019-05-17T02:15:23.897Z,92.66
2019-05-17T02:17:49.698Z,92.56
2019-05-17T02:20:17.057Z,92.68
2019-05-17T02:22:43.096Z,93.08
2019-05-17T02:25:09.880Z,92.77
2019-05-17T02:27:41.058Z,92.95
2019-05-17T02:30:06.697Z,93.22
2019-05-17T02:32:33.685Z,93.15
2019-05-17T02:35:03.017Z,93.01
2019-05-17T02:37:27.483Z,93.05
2019-05-17T02:40:02.390Z,92.83
2019-05-17T02:42:22.407Z,92.71
2019-05-17T02:44:48.363Z,92.62
2019-05-17T02:47:14.159Z,92.84
2019-05-17T02:49:42.490Z,92.85
2019-05-17T02:52:07.728Z,92.95
2019-05-17T02:54:33.546Z,92.90
2019-05-17T02:56:59.322Z,92.71
2019-05-17T02:59:25.122Z,92.87
2019-05-17T03:01:52.714Z,92.78
2019-05-17T03:04:18.622Z,92.79
2019-05-17T03:06:44.417Z,92.74
2019-05-17T03:09:12.507Z,92.84
2019-05-17T03:11:37.925Z,92.77
2019-05-17T03:14:04.248Z,92.83
2019-05-17T03:16:33.562Z,92.97
2019-05-17T03:18:57.826Z,92.85
2019-05-17T03:21:23.608Z,92.75
2019-05-17T03:23:49.432Z,92.87
2019-05-17T03:26:15.221Z,92.94
2019-05-17T03:28:42.674Z,93.12
2019-05-17T03:31:09.541Z,93.00
2019-05-17T03:33:36.860Z,93.18
2019-05-17T03:36:06.089Z,93.16
2019-05-17T03:38:32.543Z,92.98
2019-05-17T03:41:13.473Z,92.94
2019-05-17T03:43:26.108Z,93.01
2019-05-17T03:45:53.345Z,93.36
2019-05-17T03:48:22.001Z,93.09
2019-05-17T03:50:47.099Z,93.33
2019-05-17T03:53:13.310Z,93.50
2019-05-17T03:55:39.196Z,93.59
2019-05-17T03:58:04.977Z,93.47
2019-05-17T04:00:30.784Z,93.37
2019-05-17T04:02:56.576Z,94.00
2019-05-17T04:05:22.840Z,93.88
2019-05-17T04:07:48.701Z,93.84
2019-05-17T04:10:15.478Z,93.79
2019-05-17T04:12:44.155Z,93.80
2019-05-17T04:15:13.374Z,93.77
2019-05-17T04:17:39.276Z,93.74
2019-05-17T04:20:05.774Z,93.68
2019-05-17T04:22:33.143Z,93.84
2019-05-17T04:25:02.787Z,93.71
2019-05-17T04:27:26.749Z,93.72
2019-05-17T04:29:53.312Z,94.01
2019-05-17T04:32:19.340Z,93.81
2019-05-17T04:34:45.118Z,93.99
2019-05-17T04:37:13.029Z,93.96
2019-05-17T04:39:38.602Z,93.94
2019-05-17T04:42:04.507Z,93.71
2019-05-17T04:44:32.240Z,93.64
2019-05-17T04:46:58.107Z,93.51
2019-05-17T04:49:24.442Z,93.42
2019-05-17T04:51:52.571Z,93.29
2019-05-17T04:54:18.068Z,93.49
2019-05-17T04:56:43.876Z,93.29
2019-05-17T04:59:09.654Z,93.38
2019-05-17T05:01:35.461Z,93.25
2019-05-17T05:04:03.669Z,93.21
2019-05-17T05:06:28.941Z,92.81
2019-05-17T05:08:54.718Z,92.71
2019-05-17T05:11:23.105Z,92.66
2019-05-17T05:13:48.214Z,92.58
2019-05-17T05:16:14.010Z,92.47
2019-05-17T05:18:42.123Z,92.75
2019-05-17T05:21:07.699Z,92.66
2019-05-17T05:23:33.486Z,92.80
2019-05-17T05:25:59.289Z,92.73
2019-05-17T05:28:25.074Z,92.69
2019-05-17T05:30:52.731Z,92.59
2019-05-17T05:33:18.572Z,92.61
2019-05-17T05:35:44.348Z,92.61
2019-05-17T05:38:12.653Z,92.41
2019-05-17T05:40:38.121Z,92.47
2019-05-17T05:43:03.922Z,91.97
2019-05-17T05:45:31.935Z,92.20
2019-05-17T05:47:57.408Z,92.00
2019-05-17T05:50:23.256Z,92.24
2019-05-17T05:52:49.050Z,92.25
2019-05-17T05:55:15.434Z,92.20
2019-05-17T05:57:42.032Z,91.88
2019-05-17T06:00:12.484Z,92.02
2019-05-17T06:02:37.832Z,91.96
2019-05-17T06:05:05.209Z,91.99
2019-05-17T06:07:32.183Z,92.20
2019-05-17T06:09:58.126Z,91.75
2019-05-17T06:12:28.046Z,91.84
2019-05-17T06:14:52.385Z,91.82
2019-05-17T06:17:18.220Z,92.06
2019-05-17T06:19:44.008Z,91.65
2019-05-17T06:22:11.864Z,91.65
2019-05-17T06:24:37.490Z,91.57
2019-05-17T06:27:03.279Z,91.74
2019-05-17T06:29:29.066Z,91.78
2019-05-17T06:31:54.848Z,91.91
2019-05-17T06:34:22.365Z,91.85
2019-05-17T06:36:48.230Z,91.98
2019-05-17T06:39:14.030Z,91.78
2019-05-17T06:41:41.970Z,91.81
2019-05-17T06:44:07.524Z,91.75
2019-05-17T06:46:33.310Z,91.63
2019-05-17T06:48:59.122Z,91.80
2019-05-17T06:51:24.904Z,91.86
2019-05-17T06:53:52.375Z,91.99
2019-05-17T06:56:18.285Z,91.97
2019-05-17T06:58:44.083Z,91.83
2019-05-17T07:01:09.871Z,91.66
2019-05-17T07:03:35.669Z,91.82
2019-05-17T07:06:03.439Z,91.54
2019-05-17T07:08:29.607Z,91.49
2019-05-17T07:10:55.458Z,90.84
2019-05-17T07:13:21.240Z,91.07
2019-05-17T07:15:47.981Z,90.72
2019-05-17T07:18:14.731Z,90.38
2019-05-17T07:20:40.540Z,90.22
2019-05-17T07:23:06.308Z,90.34
2019-05-17T07:25:32.108Z,89.92
2019-05-17T07:28:00.268Z,90.01
2019-05-17T07:30:25.686Z,90.31
2019-05-17T07:32:51.478Z,89.63
2019-05-17T07:35:19.598Z,89.07
2019-05-17T07:37:44.955Z,88.93
2019-05-17T07:40:11.260Z,87.07
2019-05-17T07:42:39.462Z,87.45
2019-05-17T07:45:10.043Z,87.86
2019-05-17T07:47:35.772Z,87.97
2019-05-17T07:50:02.967Z,87.81
2019-05-17T07:52:29.948Z,88.02
2019-05-17T07:54:55.897Z,87.32
2019-05-17T07:57:21.686Z,87.27
2019-05-17T07:59:47.490Z,87.30
2019-05-17T08:02:13.266Z,86.94
2019-05-17T08:04:40.663Z,86.92
2019-05-17T08:07:06.743Z,85.81
2019-05-17T08:09:32.542Z,86.08
2019-05-17T08:11:59.744Z,85.24
2019-05-17T08:14:30.238Z,85.24
2019-05-17T08:16:53.510Z,85.50
2019-05-17T08:19:20.494Z,85.20
2019-05-17T08:21:46.387Z,84.78
2019-05-17T08:24:12.170Z,84.43
2019-05-17T08:26:40.247Z,84.48
2019-05-17T08:29:05.644Z,84.93
2019-05-17T08:31:31.436Z,85.16
2019-05-17T08:33:57.230Z,85.13
2019-05-17T08:36:23.034Z,85.15
2019-05-17T08:38:50.175Z,85.62
2019-05-17T08:41:16.128Z,85.32
2019-05-17T08:43:46.485Z,84.32
2019-05-17T08:46:10.627Z,84.30
2019-05-17T08:48:36.476Z,82.62
2019-05-17T08:51:02.273Z,82.46
2019-05-17T08:53:30.352Z,81.92
2019-05-17T08:55:56.042Z,82.29
2019-05-17T08:58:21.841Z,81.79
2019-05-17T09:00:47.615Z,80.29
2019-05-17T09:03:13.400Z,79.42
2019-05-17T09:05:41.586Z,79.71
2019-05-17T09:08:06.879Z,79.48
2019-05-17T09:10:32.677Z,80.30
2019-05-17T09:12:59.768Z,80.04
2019-05-17T09:15:25.670Z,79.97
2019-05-17T09:17:51.469Z,80.19
2019-05-17T09:20:17.257Z,80.60
2019-05-17T09:22:43.055Z,80.97
2019-05-17T09:25:12.257Z,80.29
2019-05-17T09:27:36.743Z,81.04
2019-05-17T09:30:04.033Z,80.15
2019-05-17T09:32:29.873Z,78.78
2019-05-17T09:34:55.613Z,77.43
2019-05-17T09:37:22.629Z,74.46
2019-05-17T09:39:49.261Z,74.08
2019-05-17T09:42:15.206Z,73.92
2019-05-17T09:44:40.994Z,74.71
2019-05-17T09:47:06.772Z,75.70
2019-05-17T09:49:32.566Z,76.23
2019-05-17T09:52:00.155Z,75.37
2019-05-17T09:54:41.139Z,74.86
2019-05-17T09:56:53.754Z,73.79
2019-05-17T09:59:20.406Z,72.48
2019-05-17T10:01:46.235Z,71.63
2019-05-17T10:04:13.461Z,70.60
2019-05-17T10:06:40.228Z,70.53
2019-05-17T10:09:06.046Z,70.79
2019-05-17T10:11:31.848Z,70.80
2019-05-17T10:13:59.016Z,71.05
2019-05-17T10:16:25.334Z,71.75
2019-05-17T10:18:51.129Z,68.33
2019-05-17T10:21:16.909Z,67.28
2019-05-17T10:23:42.706Z,64.66
2019-05-17T10:26:10.240Z,65.48
2019-05-17T10:28:36.184Z,66.50
2019-05-17T10:31:02.523Z,66.65
2019-05-17T10:33:29.440Z,63.57
2019-05-17T10:35:55.358Z,62.44
2019-05-17T10:38:21.138Z,64.85
2019-05-17T10:40:47.130Z,64.79
2019-05-17T10:43:12.921Z,62.25
2019-05-17T10:45:40.049Z,58.33
2019-05-17T10:48:06.095Z,57.96
2019-05-17T10:50:31.910Z,58.56
2019-05-17T10:53:00.215Z,59.63
2019-05-17T10:55:25.376Z,59.54
2019-05-17T10:57:51.159Z,60.73
2019-05-17T11:00:19.525Z,58.53
2019-05-17T11:02:44.935Z,56.82
2019-05-17T11:05:10.828Z,56.27
2019-05-17T11:07:36.649Z,57.58
2019-05-17T11:10:03.757Z,58.09
2019-05-17T11:12:29.542Z,56.80
2019-05-17T11:15:09.751Z,55.67
2019-05-17T11:17:23.016Z,54.65
2019-05-17T11:19:48.871Z,52.18
2019-05-17T11:22:14.914Z,51.90
2019-05-17T11:24:40.679Z,50.64
2019-05-17T11:27:06.470Z,50.92
2019-05-17T11:29:32.364Z,49.06
2019-05-17T11:31:58.173Z,45.21
2019-05-17T11:34:25.605Z,47.34
2019-05-17T11:36:51.546Z,49.19
2019-05-17T11:39:17.337Z,51.47
2019-05-17T11:41:43.130Z,50.18
2019-05-17T11:44:08.910Z,48.74
2019-05-17T11:46:36.509Z,50.29
2019-05-17T11:49:02.485Z,50.42
2019-05-17T11:51:28.275Z,52.45
2019-05-17T11:53:54.055Z,54.32
2019-05-17T11:56:19.849Z,53.68
2019-05-17T11:58:45.636Z,55.49
2019-05-17T12:01:11.431Z,55.39
2019-05-17T12:03:37.210Z,53.72
2019-05-17T12:06:03.202Z,52.42
2019-05-17T12:08:28.980Z,53.00
2019-05-17T12:10:54.879Z,51.93
2019-05-17T12:13:20.772Z,50.49
2019-05-17T12:15:46.549Z,51.10
2019-05-17T12:18:12.342Z,52.27
2019-05-17T12:20:38.127Z,50.84
2019-05-17T12:23:03.920Z,51.75
2019-05-17T12:25:29.707Z,49.17
2019-05-17T12:27:55.502Z,47.35
2019-05-17T12:30:21.384Z,49.43
2019-05-17T12:32:47.180Z,48.41
2019-05-17T12:35:12.952Z,47.73
2019-05-17T12:37:42.136Z,47.20
2019-05-17T12:40:06.963Z,50.07
2019-05-17T12:42:32.821Z,50.43
2019-05-17T12:44:58.606Z,51.96
2019-05-17T12:47:24.400Z,51.44
2019-05-17T12:49:50.175Z,49.54
2019-05-17T12:52:15.965Z,50.72
2019-05-17T12:54:41.744Z,51.47
2019-05-17T12:57:07.535Z,50.04
2019-05-17T12:59:33.324Z,51.87
2019-05-17T13:01:59.130Z,54.09
2019-05-17T13:04:24.911Z,52.92
2019-05-17T13:06:50.698Z,51.52
2019-05-17T13:09:16.491Z,49.24
2019-05-17T13:11:42.298Z,49.67
2019-05-17T13:14:08.084Z,49.51
2019-05-17T13:16:33.861Z,51.39
2019-05-17T13:18:59.929Z,51.15
2019-05-17T13:21:25.690Z,48.52
2019-05-17T13:23:51.480Z,49.48
2019-05-17T13:26:17.263Z,50.26
2019-05-17T13:28:43.053Z,51.05
2019-05-17T13:31:08.832Z,52.85
2019-05-17T13:33:34.628Z,51.76
2019-05-17T13:36:00.413Z,50.38
2019-05-17T13:38:26.208Z,51.51
2019-05-17T13:40:51.986Z,52.56
2019-05-17T13:43:17.789Z,51.43
2019-05-17T13:45:44.587Z,50.91
2019-05-17T13:48:10.657Z,48.92
2019-05-17T13:50:36.445Z,48.81
2019-05-17T13:53:02.232Z,49.74
2019-05-17T13:55:28.031Z,50.61
2019-05-17T13:57:53.801Z,51.98
2019-05-17T14:00:19.705Z,50.30
2019-05-17T14:02:45.470Z,51.37
2019-05-17T14:05:11.571Z,52.43
2019-05-17T14:07:37.354Z,51.88
2019-05-17T14:10:06.341Z,53.20
2019-05-17T14:12:32.114Z,54.45
2019-05-17T14:14:57.917Z,55.68
2019-05-17T14:17:23.693Z,54.32
2019-05-17T14:19:49.482Z,52.21
2019-05-17T14:22:15.297Z,50.34
2019-05-17T14:24:41.131Z,50.55
2019-05-17T14:27:07.009Z,54.94
2019-05-17T14:29:32.829Z,55.27
2019-05-17T14:31:58.588Z,56.26
2019-05-17T14:34:24.389Z,57.38
2019-05-17T14:36:50.168Z,58.36
2019-05-17T14:39:15.968Z,57.95
2019-05-17T14:41:41.751Z,58.23
2019-05-17T14:44:07.538Z,57.56
2019-05-17T14:46:33.339Z,58.88
2019-05-17T14:48:59.136Z,59.04
2019-05-17T14:51:25.024Z,59.30
2019-05-17T14:53:51.058Z,59.57
2019-05-17T14:56:16.952Z,60.50
2019-05-17T14:58:42.738Z,62.20
2019-05-17T15:01:08.528Z,62.69
2019-05-17T15:03:34.313Z,62.86
2019-05-17T15:06:00.134Z,63.40
2019-05-17T15:08:25.974Z,62.73
2019-05-17T15:10:51.779Z,62.84
2019-05-17T15:13:17.570Z,62.30
2019-05-17T15:15:43.364Z,62.44
2019-05-17T15:18:09.936Z,61.91
2019-05-17T15:20:35.947Z,61.84
2019-05-17T15:23:02.222Z,62.04
2019-05-17T15:25:28.015Z,61.52
2019-05-17T15:27:54.716Z,62.06
2019-05-17T15:30:22.123Z,62.55
2019-05-17T15:32:49.512Z,63.26
2019-05-17T15:35:15.813Z,63.40
2019-05-17T15:37:42.584Z,63.80
2019-05-17T15:40:09.586Z,64.19
2019-05-17T15:42:44.011Z,64.71
2019-05-17T15:45:05.596Z,65.03
2019-05-17T15:47:31.381Z,65.47
2019-05-17T15:49:57.179Z,65.74
2019-05-17T15:52:23.381Z,65.93
2019-05-17T15:54:49.173Z,65.85
2019-05-17T15:57:15.039Z,65.93
2019-05-17T15:59:40.827Z,65.96
2019-05-17T16:02:06.650Z,65.79
2019-05-17T16:04:32.424Z,66.45
2019-05-17T16:06:58.222Z,66.33
2019-05-17T16:09:24.035Z,65.24
2019-05-17T16:11:49.859Z,65.59
2019-05-17T16:14:15.660Z,66.21
2019-05-17T16:16:41.445Z,66.02
2019-05-17T16:19:07.244Z,66.29
2019-05-17T16:21:33.027Z,66.47
2019-05-17T16:23:58.834Z,67.41
2019-05-17T16:26:24.621Z,68.01
2019-05-17T16:28:50.524Z,68.69
2019-05-17T16:31:16.301Z,69.14
2019-05-17T16:33:42.098Z,69.58
2019-05-17T16:36:07.889Z,70.06
2019-05-17T16:38:33.681Z,70.63
2019-05-17T16:40:59.466Z,71.37
2019-05-17T16:43:25.256Z,71.99
2019-05-17T16:45:51.044Z,72.39
2019-05-17T16:48:16.849Z,72.88
2019-05-17T16:50:43.610Z,73.14
2019-05-17T16:53:09.417Z,73.05
2019-05-17T16:55:35.235Z,72.91
2019-05-17T16:58:01.032Z,73.02
2019-05-17T17:00:30.031Z,73.30
2019-05-17T17:02:55.838Z,73.00
2019-05-17T17:05:21.638Z,72.88
2019-05-17T17:07:47.441Z,73.18
2019-05-17T17:10:13.328Z,73.16
2019-05-17T17:12:39.142Z,72.60
2019-05-17T17:15:05.041Z,72.22
2019-05-17T17:17:30.834Z,73.13
2019-05-17T17:19:56.644Z,72.70
2019-05-17T17:22:22.463Z,72.75
2019-05-17T17:24:48.239Z,72.92
2019-05-17T17:27:14.037Z,73.38
2019-05-17T17:29:40.217Z,73.66
2019-05-17T17:32:19.422Z,73.49
2019-05-17T17:34:33.749Z,73.92
2019-05-17T17:36:59.538Z,73.85
2019-05-17T17:39:25.336Z,73.62
2019-05-17T17:41:51.132Z,73.71
2019-05-17T17:44:16.941Z,74.14
2019-05-17T17:46:42.740Z,74.39
2019-05-17T17:49:08.556Z,74.41
2019-05-17T17:51:34.384Z,74.28
2019-05-17T17:54:00.163Z,74.77
2019-05-17T17:56:25.993Z,75.58
2019-05-17T17:58:51.782Z,75.90
2019-05-17T18:01:17.577Z,75.74
2019-05-17T18:03:43.377Z,75.89
2019-05-17T18:06:09.194Z,76.02
2019-05-17T18:08:34.968Z,76.31
2019-05-17T18:11:00.782Z,76.21
2019-05-17T18:13:26.574Z,76.40
2019-05-17T18:15:52.376Z,76.83
2019-05-17T18:18:18.159Z,77.17
2019-05-17T18:20:43.965Z,77.33
2019-05-17T18:23:09.842Z,77.90
2019-05-17T18:25:35.851Z,78.33
2019-05-17T18:28:01.633Z,78.43
2019-05-17T18:30:27.536Z,78.80
2019-05-17T18:32:53.441Z,79.28
2019-05-17T18:35:19.234Z,79.40
2019-05-17T18:37:45.028Z,79.61
2019-05-17T18:40:10.967Z,79.55
2019-05-17T18:42:36.753Z,79.89
2019-05-17T18:45:04.751Z,80.23
2019-05-17T18:47:30.554Z,80.33
2019-05-17T18:49:56.344Z,80.73
2019-05-17T18:52:22.151Z,80.43
2019-05-17T18:54:47.931Z,80.86
2019-05-17T18:57:13.716Z,81.25
2019-05-17T18:59:39.494Z,81.56
2019-05-17T19:02:05.398Z,81.42
2019-05-17T19:04:31.191Z,81.22
2019-05-17T19:06:57.061Z,81.01
2019-05-17T19:09:22.837Z,81.28
2019-05-17T19:11:48.653Z,81.36
2019-05-17T19:14:14.442Z,81.61
2019-05-17T19:16:40.246Z,81.83
2019-05-17T19:19:06.026Z,81.63
2019-05-17T19:21:31.826Z,81.73
2019-05-17T19:23:57.618Z,82.15
2019-05-17T19:26:23.409Z,82.12
2019-05-17T19:28:49.198Z,82.06
2019-05-17T19:31:14.995Z,82.55
2019-05-17T19:33:40.787Z,82.77
2019-05-17T19:36:06.606Z,82.84
2019-05-17T19:38:32.414Z,83.23
2019-05-17T19:40:58.210Z,83.32
2019-05-17T19:43:24.014Z,83.26
2019-05-17T19:45:49.797Z,83.41
2019-05-17T19:48:15.606Z,83.65
2019-05-17T19:50:41.381Z,83.97
2019-05-17T19:53:07.172Z,83.58
2019-05-17T19:55:33.462Z,83.87
2019-05-17T19:57:59.360Z,83.98
2019-05-17T20:00:25.192Z,83.89
2019-05-17T20:02:50.952Z,84.15
2019-05-17T20:05:16.838Z,84.15
2019-05-17T20:07:42.654Z,84.22
2019-05-17T20:10:08.938Z,84.15
2019-05-17T20:12:34.853Z,84.52
2019-05-17T20:15:16.175Z,84.39
2019-05-17T20:17:28.333Z,84.24
2019-05-17T20:19:54.118Z,84.53
2019-05-17T20:22:19.923Z,84.37
2019-05-17T20:24:45.705Z,84.72
2019-05-17T20:27:11.504Z,85.22
2019-05-17T20:29:37.298Z,85.15
2019-05-17T20:32:03.185Z,85.24
2019-05-17T20:34:28.994Z,85.31
2019-05-17T20:36:54.789Z,85.23
2019-05-17T20:39:20.590Z,85.37
2019-05-17T20:41:46.382Z,85.03
2019-05-17T20:44:12.185Z,85.21
2019-05-17T20:46:37.971Z,85.64
2019-05-17T20:49:03.777Z,85.86
2019-05-17T20:51:29.571Z,86.07
2019-05-17T20:53:55.370Z,86.19
2019-05-17T20:56:32.365Z,86.22
2019-05-17T20:58:48.868Z,86.24
2019-05-17T21:01:14.668Z,86.53
2019-05-17T21:03:40.457Z,86.30
2019-05-17T21:06:06.245Z,86.29
2019-05-17T21:08:45.133Z,86.30
2019-05-17T21:10:59.749Z,86.43
2019-05-17T21:13:25.580Z,86.58
2019-05-17T21:15:51.355Z,86.12
2019-05-17T21:18:17.150Z,86.60
2019-05-17T21:20:42.941Z,86.72
2019-05-17T21:23:08.729Z,86.79
2019-05-17T21:25:34.528Z,87.01
2019-05-17T21:28:00.419Z,87.11
2019-05-17T21:30:26.225Z,87.38
2019-05-17T21:32:52.019Z,87.27
2019-05-17T21:35:17.811Z,87.43
2019-05-17T21:37:43.594Z,87.39
2019-05-17T21:40:09.798Z,87.60
2019-05-17T21:42:35.603Z,87.71
2019-05-17T21:45:03.424Z,88.15
2019-05-17T21:47:29.193Z,88.09
2019-05-17T21:49:54.992Z,88.12
2019-05-17T21:52:20.773Z,88.23
2019-05-17T21:54:46.578Z,88.55
2019-05-17T21:57:12.398Z,88.38
2019-05-17T21:59:38.164Z,88.05
2019-05-17T22:02:04.250Z,87.81
2019-05-17T22:04:30.058Z,88.15
2019-05-17T22:06:55.853Z,87.89
2019-05-17T22:09:21.763Z,88.06
2019-05-17T22:11:49.460Z,88.31
2019-05-17T22:14:15.250Z,88.30
2019-05-17T22:16:41.048Z,88.56
2019-05-17T22:19:06.828Z,88.63
2019-05-17T22:21:32.961Z,88.63
2019-05-17T22:23:58.760Z,88.48
2019-05-17T22:26:24.559Z,88.40
2019-05-17T22:28:50.355Z,88.49
2019-05-17T22:31:16.148Z,88.46
2019-05-17T22:33:42.242Z,88.53
2019-05-17T22:36:08.142Z,88.58
2019-05-17T22:38:33.973Z,88.21
2019-05-17T22:40:59.769Z,88.62
2019-05-17T22:43:25.559Z,88.54
2019-05-17T22:45:51.366Z,88.52
2019-05-17T22:48:17.144Z,88.70
2019-05-17T22:50:42.939Z,88.57
2019-05-17T22:53:08.722Z,88.82
2019-05-17T22:55:34.508Z,88.92
2019-05-17T22:58:00.301Z,89.05
2019-05-17T23:00:26.413Z,88.77
2019-05-17T23:02:52.424Z,88.97
2019-05-17T23:05:25.702Z,88.96
2019-05-17T23:07:46.308Z,89.21
2019-05-17T23:10:12.341Z,89.16
2019-05-17T23:12:38.151Z,89.33
2019-05-17T23:15:06.333Z,89.28
2019-05-17T23:17:32.126Z,89.09
2019-05-17T23:19:58.084Z,89.51
2019-05-17T23:22:23.892Z,89.38
2019-05-17T23:24:49.674Z,89.35
2019-05-17T23:27:15.511Z,89.62
2019-05-17T23:29:41.615Z,89.83
2019-05-17T23:32:07.620Z,89.68
2019-05-17T23:34:33.398Z,89.79
2019-05-17T23:36:59.200Z,89.66
2019-05-17T23:39:25.175Z,89.67
2019-05-17T23:41:51.134Z,89.61
2019-05-17T23:44:16.957Z,89.60
2019-05-17T23:46:42.700Z,89.98
2019-05-17T23:49:08.506Z,90.22
2019-05-17T23:51:34.371Z,90.15
2019-05-17T23:54:00.159Z,90.22
2019-05-17T23:56:25.950Z,90.28
2019-05-17T23:58:51.750Z,90.49
